createdAt,value
2022-10-19T00:01:09.200Z,102720.91
2022-10-19T00:03:37.044Z,102654.59
2022-10-19T00:06:16.974Z,102716.47
2022-10-19T00:08:44.478Z,102690.34
2022-10-19T00:11:12.327Z,102713.91
2022-10-19T00:13:39.128Z,102701.66
2022-10-19T00:16:15.775Z,102678.13
2022-10-19T00:18:43.904Z,102694.59
2022-10-19T00:21:12.842Z,102706.81
2022-10-19T00:23:39.916Z,102711.25
2022-10-19T00:26:07.197Z,102678.13
2022-10-19T00:28:34.027Z,102717.28
2022-10-19T00:31:10.732Z,102688.59
2022-10-19T00:33:37.903Z,102708.69
2022-10-19T00:36:05.241Z,102669.44
2022-10-19T00:38:31.897Z,102686.00
2022-10-19T00:40:58.787Z,102699.91
2022-10-19T00:43:30.738Z,102715.56
2022-10-19T00:45:57.380Z,102702.41
2022-10-19T00:48:32.035Z,102686.84
2022-10-19T00:51:00.318Z,102681.59
2022-10-19T00:53:30.061Z,102693.88
2022-10-19T00:55:57.505Z,102716.59
2022-10-19T00:58:24.511Z,102687.84
2022-10-19T01:00:51.251Z,102666.09
2022-10-19T01:03:18.318Z,102710.63
2022-10-19T01:05:44.985Z,102695.78
2022-10-19T01:08:12.282Z,102673.16
2022-10-19T01:10:47.418Z,102692.34
2022-10-19T01:13:44.351Z,102694.97
2022-10-19T01:16:18.913Z,102688.81
2022-10-19T01:18:56.801Z,102679.16
2022-10-19T01:21:38.077Z,102660.91
2022-10-19T01:24:33.964Z,102694.97
2022-10-19T01:27:22.813Z,102687.16
2022-10-19T01:30:11.272Z,102681.94
2022-10-19T01:32:50.676Z,102661.88
2022-10-19T01:35:26.193Z,102670.56
2022-10-19T01:38:05.568Z,102668.81
2022-10-19T01:41:18.495Z,102661.84
2022-10-19T01:43:51.067Z,102670.56
2022-10-19T01:46:41.255Z,102665.38
2022-10-19T01:49:37.825Z,102645.31
2022-10-19T01:52:07.871Z,102657.53
2022-10-19T01:54:39.816Z,102660.13
2022-10-19T01:57:09.227Z,102664.44
2022-10-19T01:59:37.551Z,102653.13
2022-10-19T02:02:07.002Z,102640.88
2022-10-19T02:04:35.101Z,102649.59
2022-10-19T02:07:03.041Z,102647.88
2022-10-19T02:09:30.279Z,102606.06
2022-10-19T02:11:59.566Z,102667.84
2022-10-19T02:14:31.887Z,102661.78
2022-10-19T02:17:25.368Z,102673.97
2022-10-19T02:19:53.891Z,102634.78
2022-10-19T02:22:21.442Z,102665.25
2022-10-19T02:24:48.246Z,102626.06
2022-10-19T02:27:14.976Z,102668.63
2022-10-19T02:29:41.804Z,102651.16
2022-10-19T02:32:09.810Z,102606.75
2022-10-19T02:34:37.622Z,102606.66
2022-10-19T02:37:05.195Z,102617.06
2022-10-19T02:39:32.527Z,102629.16
2022-10-19T02:42:12.239Z,102607.34
2022-10-19T02:44:56.377Z,102641.16
2022-10-19T02:47:49.572Z,102592.38
2022-10-19T02:50:19.380Z,102591.50
2022-10-19T02:52:46.061Z,102584.59
2022-10-19T02:55:12.743Z,102590.84
2022-10-19T02:57:39.478Z,102610.09
2022-10-19T03:00:10.835Z,102623.13
2022-10-19T03:02:37.626Z,102610.03
2022-10-19T03:05:05.063Z,102590.31
2022-10-19T03:07:31.955Z,102570.16
2022-10-19T03:09:58.910Z,102607.59
2022-10-19T03:12:25.667Z,102603.25
2022-10-19T03:14:52.468Z,102599.75
2022-10-19T03:17:19.418Z,102584.09
2022-10-19T03:19:46.239Z,102575.34
2022-10-19T03:22:14.998Z,102576.25
2022-10-19T03:24:41.765Z,102578.88
2022-10-19T03:27:08.497Z,102569.31
2022-10-19T03:29:35.173Z,102586.72
2022-10-19T03:32:01.923Z,102559.88
2022-10-19T03:34:28.732Z,102577.34
2022-10-19T03:36:56.757Z,102537.34
2022-10-19T03:39:23.770Z,102536.47
2022-10-19T03:41:50.477Z,102555.59
2022-10-19T03:44:17.278Z,102590.41
2022-10-19T03:50:26.777Z,102572.78
2022-10-19T03:52:55.290Z,102567.56
2022-10-19T03:55:21.964Z,102573.69
2022-10-19T03:57:48.626Z,102576.41
2022-10-19T04:00:15.587Z,102571.22
2022-10-19T04:02:42.272Z,102560.75
2022-10-19T04:05:09.099Z,102551.16
2022-10-19T04:07:35.964Z,102564.22
2022-10-19T04:10:02.858Z,102578.16
2022-10-19T04:12:29.498Z,102578.13
2022-10-19T04:14:57.678Z,102551.88
2022-10-19T04:17:25.606Z,102571.88
2022-10-19T04:19:52.264Z,102574.50
2022-10-19T04:22:18.940Z,102591.00
2022-10-19T04:24:45.563Z,102565.78
2022-10-19T04:27:12.232Z,102579.78
2022-10-19T04:29:38.902Z,102605.09
2022-10-19T04:32:05.740Z,102557.19
2022-10-19T04:34:35.180Z,102569.38
2022-10-19T04:37:04.390Z,102565.09
2022-10-19T04:39:31.056Z,102555.53
2022-10-19T04:41:57.706Z,102535.50
2022-10-19T04:46:51.031Z,102555.44
2022-10-19T04:49:19.542Z,102572.78
2022-10-19T04:51:47.076Z,102549.28
2022-10-19T04:54:13.734Z,102556.25
2022-10-19T04:56:40.648Z,102555.38
2022-10-19T04:59:07.518Z,102564.94
2022-10-19T05:01:34.290Z,102547.53
2022-10-19T05:04:02.690Z,102578.03
2022-10-19T05:06:31.669Z,102572.78
2022-10-19T05:08:59.376Z,102530.19
2022-10-19T05:11:26.442Z,102538.88
2022-10-19T05:13:53.187Z,102544.13
2022-10-19T05:16:22.554Z,102565.91
2022-10-19T05:18:50.894Z,102558.91
2022-10-19T05:21:19.152Z,102558.00
2022-10-19T05:23:46.360Z,102518.81
2022-10-19T05:26:17.428Z,102550.09
2022-10-19T05:28:51.379Z,102488.41
2022-10-19T05:31:20.279Z,102548.34
2022-10-19T05:33:47.588Z,102529.22
2022-10-19T05:36:18.660Z,102536.16
2022-10-19T05:38:47.711Z,102542.09
2022-10-19T05:41:15.477Z,102518.63
2022-10-19T05:43:42.711Z,102525.53
2022-10-19T05:46:15.179Z,102542.94
2022-10-19T05:48:41.919Z,102522.09
2022-10-19T05:51:12.146Z,102518.53
2022-10-19T05:56:08.146Z,102507.25
2022-10-19T05:58:35.890Z,102521.91
2022-10-19T06:01:03.411Z,102513.28
2022-10-19T06:03:30.534Z,102476.59
2022-10-19T06:05:57.735Z,102518.31
2022-10-19T06:08:26.246Z,102514.88
2022-10-19T06:10:52.987Z,102504.50
2022-10-19T06:13:22.682Z,102499.13
2022-10-19T06:15:52.464Z,102482.50
2022-10-19T06:18:19.325Z,102483.44
2022-10-19T06:20:46.477Z,102477.34
2022-10-19T06:23:13.239Z,102496.34
2022-10-19T06:25:41.920Z,102516.28
2022-10-19T06:28:09.066Z,102509.41
2022-10-19T06:30:41.238Z,102511.06
2022-10-19T06:33:08.280Z,102497.00
2022-10-19T06:35:35.472Z,102510.94
2022-10-19T06:38:02.235Z,102478.69
2022-10-19T06:40:29.635Z,102519.41
2022-10-19T06:42:57.015Z,102511.69
2022-10-19T06:45:23.857Z,102490.81
2022-10-19T06:47:50.571Z,102489.25
2022-10-19T06:50:18.180Z,102494.53
2022-10-19T06:52:46.388Z,102475.38
2022-10-19T06:55:13.346Z,102477.03
2022-10-19T06:57:40.199Z,102529.16
2022-10-19T07:00:08.323Z,102501.16
2022-10-19T07:02:35.096Z,102503.69
2022-10-19T07:05:06.038Z,102488.28
2022-10-19T07:07:37.803Z,102476.03
2022-10-19T07:10:09.419Z,102445.69
2022-10-19T07:12:38.983Z,102466.44
2022-10-19T07:15:06.877Z,102514.25
2022-10-19T07:17:35.013Z,102460.44
2022-10-19T07:20:02.436Z,102498.53
2022-10-19T07:22:29.556Z,102466.53
2022-10-19T07:24:56.409Z,102467.13
2022-10-19T07:27:23.211Z,102500.19
2022-10-19T07:29:50.452Z,102509.75
2022-10-19T07:32:17.304Z,102491.50
2022-10-19T07:34:44.334Z,102485.41
2022-10-19T07:37:14.652Z,102445.44
2022-10-19T07:39:41.403Z,102449.75
2022-10-19T07:42:08.604Z,102425.41
2022-10-19T07:44:35.427Z,102495.69
2022-10-19T07:47:02.335Z,102524.34
2022-10-19T07:49:29.142Z,102483.41
2022-10-19T07:51:56.557Z,102528.91
2022-10-19T07:54:24.902Z,102492.31
2022-10-19T07:56:51.767Z,102535.84
2022-10-19T07:59:19.089Z,102465.56
2022-10-19T08:01:49.871Z,102424.72
2022-10-19T08:07:07.242Z,102443.69
2022-10-19T08:09:52.143Z,102423.63
2022-10-19T08:12:19.873Z,102450.44
2022-10-19T08:14:48.259Z,102509.84
2022-10-19T08:17:17.899Z,102409.72
2022-10-19T08:19:45.980Z,102451.97
2022-10-19T08:22:16.164Z,102428.56
2022-10-19T08:24:43.111Z,102448.84
2022-10-19T08:27:15.315Z,102452.31
2022-10-19T08:29:43.247Z,102456.38
2022-10-19T08:32:10.647Z,102464.19
2022-10-19T08:34:40.696Z,102433.91
2022-10-19T08:37:19.941Z,102452.06
2022-10-19T08:39:59.832Z,102367.16
2022-10-19T08:42:44.300Z,102467.09
2022-10-19T08:45:29.860Z,102500.41
2022-10-19T08:48:15.409Z,102479.91
2022-10-19T08:50:46.046Z,102466.94
2022-10-19T08:53:28.585Z,102420.13
2022-10-19T08:55:55.402Z,102511.00
2022-10-19T08:58:44.524Z,102449.56
2022-10-19T09:01:51.495Z,102493.81
2022-10-19T09:04:28.797Z,102504.94
2022-10-19T09:07:20.647Z,102478.94
2022-10-19T09:09:55.256Z,102478.84
2022-10-19T09:12:53.948Z,102473.38
2022-10-19T09:15:34.076Z,102403.22
2022-10-19T09:18:02.718Z,102467.47
2022-10-19T09:20:38.491Z,102367.56
2022-10-19T09:23:48.765Z,102477.59
2022-10-19T09:26:18.088Z,102444.84
2022-10-19T09:29:03.636Z,102351.78
2022-10-19T09:31:40.724Z,102484.72
2022-10-19T09:34:28.595Z,102477.78
2022-10-19T09:37:01.220Z,102429.75
2022-10-19T09:39:31.984Z,102440.22
2022-10-19T09:42:05.501Z,102461.72
2022-10-19T09:44:37.107Z,102454.19
2022-10-19T09:47:34.085Z,102365.59
2022-10-19T09:50:25.469Z,102437.16
2022-10-19T09:53:21.369Z,102446.94
2022-10-19T09:56:00.758Z,102417.50
2022-10-19T09:58:33.564Z,102427.03
2022-10-19T10:01:02.508Z,102417.91
2022-10-19T10:03:31.329Z,102450.59
2022-10-19T10:06:17.917Z,102427.13
2022-10-19T10:08:58.947Z,102417.66
2022-10-19T10:11:30.680Z,102351.59
2022-10-19T10:14:02.934Z,102365.63
2022-10-19T10:16:36.326Z,102447.09
2022-10-19T10:19:09.183Z,102446.47
2022-10-19T10:21:55.920Z,102400.59
2022-10-19T10:24:25.311Z,102431.06
2022-10-19T10:27:00.343Z,102344.19
2022-10-19T10:29:35.550Z,102435.22
2022-10-19T10:32:21.897Z,102383.19
2022-10-19T10:34:52.830Z,102426.47
2022-10-19T10:37:23.643Z,102390.88
2022-10-19T10:39:58.961Z,102403.81
2022-10-19T10:42:40.773Z,102427.97
2022-10-19T10:45:17.646Z,102370.06
2022-10-19T10:47:48.447Z,102380.47
2022-10-19T10:50:25.018Z,102402.72
2022-10-19T10:53:06.685Z,102438.38
2022-10-19T10:55:34.974Z,102398.50
2022-10-19T10:58:33.965Z,102394.53
2022-10-19T11:01:07.648Z,102377.88
2022-10-19T11:03:44.077Z,102370.09
2022-10-19T11:06:12.775Z,102351.31
2022-10-19T11:08:51.676Z,102437.16
2022-10-19T11:11:31.232Z,102386.94
2022-10-19T11:14:25.604Z,102433.63
2022-10-19T11:16:54.122Z,102434.53
2022-10-19T11:19:26.266Z,102408.97
2022-10-19T11:22:10.510Z,102420.91
2022-10-19T11:24:51.657Z,102431.28
2022-10-19T11:27:33.686Z,102425.84
2022-10-19T11:30:18.255Z,102424.56
2022-10-19T11:33:00.239Z,102414.13
2022-10-19T11:35:56.193Z,102414.44
2022-10-19T11:38:49.622Z,102397.38
2022-10-19T11:41:37.791Z,102389.50
2022-10-19T11:44:16.823Z,102399.22
2022-10-19T11:47:06.816Z,102387.84
2022-10-19T11:50:00.103Z,102389.25
2022-10-19T11:52:55.112Z,102363.06
2022-10-19T11:55:28.711Z,102326.88
2022-10-19T11:58:32.364Z,102383.13
2022-10-19T12:01:22.238Z,102376.97
2022-10-19T12:04:02.011Z,102374.44
2022-10-19T12:07:05.699Z,102373.78
2022-10-19T12:09:50.970Z,102373.91
2022-10-19T12:12:27.043Z,102365.03
2022-10-19T12:15:03.272Z,102348.22
2022-10-19T12:17:34.505Z,102356.81
2022-10-19T12:20:34.983Z,102352.22
2022-10-19T12:23:13.919Z,102316.47
2022-10-19T12:25:44.568Z,102326.09
2022-10-19T12:28:22.334Z,102329.94
2022-10-19T12:30:50.128Z,102345.41
2022-10-19T12:33:22.902Z,102341.13
2022-10-19T12:35:49.629Z,102345.41
2022-10-19T12:38:35.450Z,102338.44
2022-10-19T12:41:16.430Z,102309.78
2022-10-19T12:44:08.852Z,102338.47
2022-10-19T12:46:49.863Z,102325.84
2022-10-19T12:49:28.630Z,102277.28
2022-10-19T12:51:57.332Z,102265.19
2022-10-19T12:54:26.188Z,102280.59
2022-10-19T12:56:55.625Z,102293.59
2022-10-19T12:59:26.047Z,102296.44
2022-10-19T13:01:54.332Z,102279.13
2022-10-19T13:04:24.244Z,102297.25
2022-10-19T13:06:50.903Z,102299.91
2022-10-19T13:09:30.532Z,102293.16
2022-10-19T13:12:19.589Z,102299.28
2022-10-19T13:14:59.364Z,102264.56
2022-10-19T13:17:36.645Z,102283.47
2022-10-19T13:20:15.551Z,102273.41
2022-10-19T13:22:49.473Z,102272.97
2022-10-19T13:25:32.795Z,102272.69
2022-10-19T13:28:12.864Z,102268.53
2022-10-19T13:30:39.594Z,102257.72
2022-10-19T13:33:33.682Z,102260.91
2022-10-19T13:36:00.534Z,102247.25
2022-10-19T13:38:59.660Z,102247.66
2022-10-19T13:41:28.576Z,102214.84
2022-10-19T13:44:07.319Z,102224.72
2022-10-19T13:47:12.342Z,102238.69
2022-10-19T13:50:03.123Z,102245.59
2022-10-19T13:52:42.032Z,102216.13
2022-10-19T13:55:37.526Z,102219.72
2022-10-19T13:58:14.215Z,102224.53
2022-10-19T14:00:49.919Z,102214.78
2022-10-19T14:03:33.456Z,102210.59
2022-10-19T14:06:28.451Z,102211.16
2022-10-19T14:09:10.781Z,102201.97
2022-10-19T14:11:41.698Z,102196.66
2022-10-19T14:14:11.436Z,102195.72
2022-10-19T14:17:03.021Z,102198.34
2022-10-19T14:19:46.815Z,102170.53
2022-10-19T14:22:27.571Z,102191.22
2022-10-19T14:25:01.408Z,102187.63
2022-10-19T14:27:28.588Z,102172.78
2022-10-19T14:29:55.474Z,102171.66
2022-10-19T14:32:28.233Z,102194.03
2022-10-19T14:35:00.263Z,102156.63
2022-10-19T14:37:27.596Z,102179.31
2022-10-19T14:40:26.455Z,102177.94
2022-10-19T14:42:59.351Z,102135.22
2022-10-19T14:45:27.518Z,102157.97
2022-10-19T14:47:55.699Z,102130.91
2022-10-19T14:50:28.639Z,102118.88
2022-10-19T14:53:16.854Z,102141.41
2022-10-19T14:55:44.080Z,102089.94
2022-10-19T14:58:22.527Z,102117.91
2022-10-19T15:00:51.807Z,102151.06
2022-10-19T15:03:28.625Z,102074.78
2022-10-19T15:06:04.662Z,102106.94
2022-10-19T15:08:42.774Z,102092.50
2022-10-19T15:11:26.494Z,102133.41
2022-10-19T15:14:26.690Z,102117.53
2022-10-19T15:17:06.142Z,102120.81
2022-10-19T15:19:41.654Z,102114.88
2022-10-19T15:22:15.197Z,102121.69
2022-10-19T15:25:06.695Z,102102.69
2022-10-19T15:27:39.839Z,102078.31
2022-10-19T15:30:19.169Z,102099.06
2022-10-19T15:32:51.498Z,102079.91
2022-10-19T15:35:25.448Z,102094.94
2022-10-19T15:38:03.766Z,102064.81
2022-10-19T15:40:36.189Z,102071.03
2022-10-19T15:43:35.495Z,102071.06
2022-10-19T15:46:12.348Z,102070.03
2022-10-19T15:48:44.586Z,102074.91
2022-10-19T15:51:23.576Z,102079.88
2022-10-19T15:53:59.357Z,102047.56
2022-10-19T15:56:32.239Z,102040.19
2022-10-19T15:59:01.984Z,102052.84
2022-10-19T16:01:32.236Z,102046.34
2022-10-19T16:04:00.107Z,102022.13
2022-10-19T16:06:29.768Z,102033.81
2022-10-19T16:08:58.703Z,102054.72
2022-10-19T16:11:27.079Z,102020.09
2022-10-19T16:13:53.995Z,102037.63
2022-10-19T16:16:42.067Z,102048.84
2022-10-19T16:19:10.556Z,102000.63
2022-10-19T16:21:37.648Z,101970.22
2022-10-19T16:24:04.786Z,102017.03
2022-10-19T16:26:32.454Z,102025.88
2022-10-19T16:29:01.172Z,102000.00
2022-10-19T16:31:28.143Z,102032.63
2022-10-19T16:33:55.181Z,101962.31
2022-10-19T16:36:21.952Z,102019.03
2022-10-19T16:38:48.688Z,101973.38
2022-10-19T16:41:15.851Z,102012.31
2022-10-19T16:43:42.651Z,102007.38
2022-10-19T16:46:09.583Z,101974.59
2022-10-19T16:48:36.974Z,102004.81
2022-10-19T16:51:12.732Z,102009.59
2022-10-19T16:53:39.500Z,102000.06
2022-10-19T16:56:08.992Z,102001.38
2022-10-19T16:58:39.350Z,102007.38
2022-10-19T17:01:10.867Z,101998.81
2022-10-19T17:03:37.923Z,101971.34
2022-10-19T17:06:06.603Z,101988.72
2022-10-19T17:08:56.701Z,101995.38
2022-10-19T17:11:28.128Z,101959.63
2022-10-19T17:13:58.080Z,101971.63
2022-10-19T17:16:27.551Z,101965.72
2022-10-19T17:18:58.118Z,101988.84
2022-10-19T17:21:31.694Z,101955.44
2022-10-19T17:24:01.430Z,101979.09
2022-10-19T17:26:38.422Z,101933.13
2022-10-19T17:29:07.711Z,101921.91
2022-10-19T17:31:35.769Z,101885.03
2022-10-19T17:34:03.990Z,101878.91
2022-10-19T17:36:33.968Z,101938.31
2022-10-19T17:39:05.892Z,101956.00
2022-10-19T17:41:33.344Z,101941.72
2022-10-19T17:44:00.776Z,101896.72
2022-10-19T17:46:32.322Z,101875.69
2022-10-19T17:49:16.552Z,101848.75
2022-10-19T17:51:44.989Z,101822.78
2022-10-19T17:54:13.779Z,101817.44
2022-10-19T17:56:47.017Z,101792.44
2022-10-19T17:59:14.907Z,101963.03
2022-10-19T18:01:54.498Z,101884.84
2022-10-19T18:04:23.611Z,101910.50
2022-10-19T18:06:50.709Z,101900.97
2022-10-19T18:09:17.514Z,101936.38
2022-10-19T18:11:45.366Z,101952.81
2022-10-19T18:14:13.426Z,101926.22
2022-10-19T18:16:45.939Z,101940.59
2022-10-19T18:19:15.020Z,101938.09
2022-10-19T18:21:43.590Z,101905.69
2022-10-19T18:24:19.689Z,101914.28
2022-10-19T18:26:47.676Z,101898.84
2022-10-19T18:29:23.637Z,101877.88
2022-10-19T18:31:55.220Z,101925.91
2022-10-19T18:34:25.632Z,101880.47
2022-10-19T18:36:53.601Z,101901.19
2022-10-19T18:39:20.926Z,101908.66
2022-10-19T18:41:51.975Z,101882.22
2022-10-19T18:44:23.497Z,101891.84
2022-10-19T18:46:53.675Z,101881.63
2022-10-19T18:49:20.823Z,101911.03
2022-10-19T18:51:52.370Z,101852.53
2022-10-19T18:54:22.033Z,101871.38
2022-10-19T18:56:48.925Z,101901.81
2022-10-19T18:59:16.057Z,101890.72
2022-10-19T19:01:43.145Z,101887.88
2022-10-19T19:04:10.617Z,101876.59
2022-10-19T19:06:39.069Z,101896.44
2022-10-19T19:09:08.949Z,101861.22
2022-10-19T19:11:38.533Z,101900.97
2022-10-19T19:14:13.459Z,101880.72
2022-10-19T19:16:41.808Z,101864.25
2022-10-19T19:19:10.768Z,101878.00
2022-10-19T19:21:38.378Z,101871.03
2022-10-19T19:24:06.935Z,101870.13
2022-10-19T19:26:38.678Z,101876.91
2022-10-19T19:29:05.547Z,101874.28
2022-10-19T19:31:32.248Z,101831.03
2022-10-19T19:34:03.345Z,101857.00
2022-10-19T19:36:30.152Z,101852.31
2022-10-19T19:38:57.947Z,101863.81
2022-10-19T19:41:25.035Z,101859.31
2022-10-19T19:43:51.777Z,101815.47
2022-10-19T19:46:20.078Z,101856.00
2022-10-19T19:48:48.288Z,101837.03
2022-10-19T19:51:18.864Z,101851.31
2022-10-19T19:53:48.605Z,101823.75
2022-10-19T19:56:16.899Z,101802.84
2022-10-19T19:58:45.366Z,101808.88
2022-10-19T20:01:16.057Z,101799.75
2022-10-19T20:03:43.587Z,101777.00
2022-10-19T20:06:10.780Z,101803.06
2022-10-19T20:08:37.592Z,101785.69
2022-10-19T20:11:08.305Z,101818.38
2022-10-19T20:13:38.708Z,101816.72
2022-10-19T20:16:10.625Z,101800.00
2022-10-19T20:18:37.375Z,101772.63
2022-10-19T20:21:05.708Z,101787.66
2022-10-19T20:23:36.711Z,101769.97
2022-10-19T20:26:03.793Z,101765.19
2022-10-19T20:28:33.015Z,101770.56
2022-10-19T20:31:11.886Z,101758.03
2022-10-19T20:33:40.075Z,101774.47
2022-10-19T20:36:09.741Z,101762.19
2022-10-19T20:38:38.783Z,101739.94
2022-10-19T20:41:08.217Z,101739.56
2022-10-19T20:43:37.796Z,101733.66
2022-10-19T20:46:17.814Z,101726.00
2022-10-19T20:48:45.377Z,101739.22
2022-10-19T20:51:30.786Z,101716.28
2022-10-19T20:54:00.404Z,101728.59
2022-10-19T20:56:29.814Z,101741.19
2022-10-19T20:59:05.056Z,101688.03
2022-10-19T21:01:34.018Z,101716.50
2022-10-19T21:04:03.455Z,101745.94
2022-10-19T21:06:32.114Z,101736.66
2022-10-19T21:08:59.949Z,101745.19
2022-10-19T21:11:29.875Z,101742.38
2022-10-19T21:14:17.527Z,101737.59
2022-10-19T21:16:44.672Z,101728.31
2022-10-19T21:19:14.164Z,101673.31
2022-10-19T21:21:44.106Z,101691.66
2022-10-19T21:24:20.736Z,101706.22
2022-10-19T21:26:48.269Z,101692.25
2022-10-19T21:29:16.203Z,101704.69
2022-10-19T21:31:48.535Z,101697.34
2022-10-19T21:34:24.408Z,101693.69
2022-10-19T21:36:51.191Z,101667.13
2022-10-19T21:39:18.095Z,101699.69
2022-10-19T21:41:45.051Z,101678.06
2022-10-19T21:44:11.883Z,101670.56
2022-10-19T21:46:38.772Z,101654.13
2022-10-19T21:49:05.520Z,101668.50
2022-10-19T21:51:39.444Z,101642.44
2022-10-19T21:56:37.301Z,101651.38
2022-10-19T21:59:04.515Z,101670.22
2022-10-19T22:01:37.291Z,101653.28
2022-10-19T22:04:08.567Z,101657.00
2022-10-19T22:06:36.738Z,101660.16
2022-10-19T22:09:05.813Z,101651.63
2022-10-19T22:11:33.044Z,101662.06
2022-10-19T22:14:01.842Z,101646.97
2022-10-19T22:16:32.952Z,101663.34
2022-10-19T22:18:59.695Z,101647.41
2022-10-19T22:21:30.189Z,101610.09
2022-10-19T22:24:06.039Z,101633.47
2022-10-19T22:26:42.223Z,101638.88
2022-10-19T22:29:09.270Z,101610.63
2022-10-19T22:31:36.946Z,101608.38
2022-10-19T22:34:06.236Z,101631.50
2022-10-19T22:36:32.901Z,101631.00
2022-10-19T22:38:59.986Z,101611.69
2022-10-19T22:42:23.047Z,101622.72
2022-10-19T22:44:49.729Z,101615.16
2022-10-19T22:47:16.478Z,101612.41
2022-10-19T22:49:43.235Z,101612.88
2022-10-19T22:52:09.900Z,101600.69
2022-10-19T22:54:36.634Z,101598.25
2022-10-19T22:57:03.554Z,101609.44
2022-10-19T22:59:30.356Z,101574.78
2022-10-19T23:01:57.051Z,101597.41
2022-10-19T23:04:23.823Z,101585.69
2022-10-19T23:06:50.489Z,101561.47
2022-10-19T23:09:17.143Z,101571.34
2022-10-19T23:11:43.884Z,101551.94
2022-10-19T23:14:10.559Z,101559.03
2022-10-19T23:16:37.479Z,101544.16
2022-10-19T23:19:04.187Z,101567.25
2022-10-19T23:21:31.206Z,101565.53
2022-10-19T23:23:58.126Z,101566.94
2022-10-19T23:26:25.150Z,101552.41
2022-10-19T23:28:51.959Z,101535.09
2022-10-19T23:31:21.070Z,101548.41
2022-10-19T23:33:47.899Z,101541.94
2022-10-19T23:36:23.557Z,101525.22
2022-10-19T23:38:51.564Z,101509.81
2022-10-19T23:41:19.406Z,101545.78
2022-10-19T23:43:46.417Z,101519.91
2022-10-19T23:46:13.696Z,101543.97
2022-10-19T23:48:41.991Z,101521.66
2022-10-19T23:51:12.088Z,101528.09
2022-10-19T23:53:41.738Z,101507.31
2022-10-19T23:56:15.016Z,101509.06
2022-10-19T23:58:41.661Z,101529.47
